createdAt,value
2018-04-29T00:00:59.169Z,68.32
2018-04-29T00:03:27.746Z,68.30
2018-04-29T00:05:56.115Z,68.21
2018-04-29T00:08:24.530Z,68.09
2018-04-29T00:10:52.710Z,68.15
2018-04-29T00:13:21.085Z,68.05
2018-04-29T00:15:49.467Z,67.90
2018-04-29T00:18:17.833Z,67.87
2018-04-29T00:20:46.252Z,67.98
2018-04-29T00:23:14.634Z,67.76
2018-04-29T00:25:43.042Z,67.64
2018-04-29T00:28:11.451Z,67.91
2018-04-29T00:30:39.866Z,67.77
2018-04-29T00:33:08.450Z,67.67
2018-04-29T00:35:36.827Z,67.71
2018-04-29T00:38:05.239Z,67.68
2018-04-29T00:40:33.618Z,67.73
2018-04-29T00:43:02.043Z,67.72
2018-04-29T00:45:30.416Z,67.81
2018-04-29T00:47:58.791Z,67.77
2018-04-29T00:50:27.164Z,67.75
2018-04-29T00:52:55.578Z,67.83
2018-04-29T00:55:23.722Z,68.08
2018-04-29T00:57:52.138Z,68.00
2018-04-29T01:00:20.319Z,68.00
2018-04-29T01:02:48.690Z,68.07
2018-04-29T01:05:17.102Z,68.64
2018-04-29T01:07:45.516Z,68.88
2018-04-29T01:10:13.892Z,69.17
2018-04-29T01:12:42.335Z,69.59
2018-04-29T01:15:10.718Z,69.88
2018-04-29T01:17:39.301Z,70.28
2018-04-29T01:20:07.885Z,70.23
2018-04-29T01:22:36.466Z,70.18
2018-04-29T01:25:05.090Z,70.26
2018-04-29T01:27:33.682Z,70.21
2018-04-29T01:30:02.279Z,70.10
2018-04-29T01:32:30.906Z,70.20
2018-04-29T01:34:59.539Z,70.15
2018-04-29T01:37:28.128Z,70.10
2018-04-29T01:39:56.720Z,70.02
2018-04-29T01:42:25.295Z,70.17
2018-04-29T01:44:53.923Z,70.32
2018-04-29T01:47:22.503Z,70.32
2018-04-29T01:49:51.095Z,70.11
2018-04-29T01:52:19.727Z,70.45
2018-04-29T01:54:48.312Z,70.76
2018-04-29T01:57:16.893Z,70.93
2018-04-29T01:59:45.547Z,70.73
2018-04-29T02:02:14.125Z,70.93
2018-04-29T02:04:42.754Z,70.98
2018-04-29T02:07:11.334Z,71.04
2018-04-29T02:09:39.968Z,71.04
2018-04-29T02:12:08.574Z,70.95
2018-04-29T02:14:37.169Z,70.83
2018-04-29T02:17:05.763Z,70.50
2018-04-29T02:19:34.342Z,70.56
2018-04-29T02:22:02.958Z,70.73
2018-04-29T02:24:31.591Z,70.57
2018-04-29T02:27:00.178Z,70.08
2018-04-29T02:29:28.766Z,69.97
2018-04-29T02:31:57.390Z,70.17
2018-04-29T02:34:25.976Z,70.74
2018-04-29T02:36:54.601Z,70.95
2018-04-29T02:39:23.197Z,70.92
2018-04-29T02:41:51.784Z,70.95
2018-04-29T02:44:20.370Z,71.67
2018-04-29T02:46:48.951Z,72.11
2018-04-29T02:49:17.539Z,72.08
2018-04-29T02:51:46.158Z,71.96
2018-04-29T02:54:14.748Z,72.03
2018-04-29T02:56:43.389Z,71.85
2018-04-29T02:59:11.991Z,72.04
2018-04-29T03:01:40.606Z,72.08
2018-04-29T03:04:09.202Z,72.31
2018-04-29T03:06:37.786Z,72.23
2018-04-29T03:09:05.686Z,72.35
2018-04-29T03:11:34.265Z,72.31
2018-04-29T03:14:02.851Z,72.34
2018-04-29T03:16:31.434Z,72.26
2018-04-29T03:19:00.032Z,72.13
2018-04-29T03:21:28.620Z,72.20
2018-04-29T03:23:57.202Z,72.37
2018-04-29T03:26:25.799Z,72.19
2018-04-29T03:28:54.386Z,72.32
2018-04-29T03:31:22.983Z,72.25
2018-04-29T03:33:51.608Z,72.47
2018-04-29T03:36:20.202Z,72.28
2018-04-29T03:38:48.805Z,72.29
2018-04-29T03:41:17.393Z,72.17
2018-04-29T03:43:45.974Z,72.08
2018-04-29T03:46:14.598Z,72.17
2018-04-29T03:48:43.182Z,71.95
2018-04-29T03:51:11.771Z,71.80
2018-04-29T03:53:40.350Z,71.65
2018-04-29T03:56:08.930Z,71.40
2018-04-29T04:01:51.678Z,71.24
2018-04-29T04:04:19.895Z,71.03
2018-04-29T04:06:48.486Z,71.06
2018-04-29T04:09:17.082Z,70.71
2018-04-29T04:11:45.660Z,70.49
2018-04-29T04:14:14.241Z,70.23
2018-04-29T04:16:42.829Z,70.15
2018-04-29T04:19:11.418Z,69.83
2018-04-29T04:21:39.999Z,69.25
2018-04-29T04:24:08.583Z,69.60
2018-04-29T04:26:37.156Z,68.56
2018-04-29T04:29:05.738Z,66.69
2018-04-29T04:31:34.324Z,64.68
2018-04-29T04:34:02.931Z,63.41
2018-04-29T04:36:31.568Z,61.74
2018-04-29T04:39:00.159Z,59.72
2018-04-29T04:41:28.751Z,57.39
2018-04-29T04:43:57.334Z,55.71
2018-04-29T04:46:25.711Z,55.08
2018-04-29T04:48:54.288Z,53.90
2018-04-29T04:51:22.879Z,52.97
2018-04-29T04:53:51.505Z,54.10
2018-04-29T04:56:19.870Z,54.18
2018-04-29T04:58:48.447Z,53.43
2018-04-29T05:01:17.056Z,52.15
2018-04-29T05:03:45.721Z,51.33
2018-04-29T05:06:14.295Z,51.18
2018-04-29T05:08:42.899Z,50.11
2018-04-29T05:11:11.493Z,49.25
2018-04-29T05:13:39.907Z,49.96
2018-04-29T05:16:08.671Z,50.17
2018-04-29T05:18:37.247Z,52.28
2018-04-29T05:21:05.870Z,53.34
2018-04-29T05:23:34.457Z,54.46
2018-04-29T05:26:03.038Z,55.63
2018-04-29T05:28:31.395Z,56.09
2018-04-29T05:30:59.755Z,56.16
2018-04-29T05:33:28.355Z,56.94
2018-04-29T05:35:56.968Z,57.29
2018-04-29T05:38:25.563Z,57.60
2018-04-29T05:40:54.143Z,57.24
2018-04-29T05:43:22.729Z,57.27
2018-04-29T05:45:51.371Z,57.45
2018-04-29T05:48:19.987Z,57.40
2018-04-29T05:50:48.601Z,57.52
2018-04-29T05:53:17.188Z,57.59
2018-04-29T05:55:45.766Z,57.68
2018-04-29T05:58:14.375Z,57.78
2018-04-29T06:00:43.023Z,58.26
2018-04-29T06:03:11.610Z,59.25
2018-04-29T06:05:40.226Z,59.49
2018-04-29T06:08:08.812Z,59.27
2018-04-29T06:10:37.457Z,59.55
2018-04-29T06:13:06.043Z,58.74
2018-04-29T06:15:34.401Z,58.08
2018-04-29T06:18:02.758Z,58.02
2018-04-29T06:20:31.121Z,58.33
2018-04-29T06:22:59.903Z,58.58
2018-04-29T06:25:28.496Z,58.62
2018-04-29T06:27:57.174Z,58.32
2018-04-29T06:30:25.800Z,58.21
2018-04-29T06:32:54.435Z,58.57
2018-04-29T06:35:23.034Z,58.36
2018-04-29T06:37:51.646Z,57.57
2018-04-29T06:40:19.874Z,57.94
2018-04-29T06:42:48.222Z,58.19
2018-04-29T06:45:16.856Z,58.05
2018-04-29T06:47:45.452Z,58.25
2018-04-29T06:50:14.132Z,57.61
2018-04-29T06:52:43.593Z,57.76
2018-04-29T06:55:12.171Z,56.93
2018-04-29T06:57:40.793Z,57.21
2018-04-29T07:00:09.412Z,56.46
2018-04-29T07:02:38.046Z,56.64
2018-04-29T07:05:06.653Z,56.49
2018-04-29T07:07:35.240Z,56.34
2018-04-29T07:10:03.586Z,55.53
2018-04-29T07:12:32.179Z,55.78
2018-04-29T07:15:00.804Z,55.19
2018-04-29T07:17:29.408Z,55.01
2018-04-29T07:19:58.023Z,55.02
2018-04-29T07:22:26.806Z,54.17
2018-04-29T07:24:55.739Z,54.21
2018-04-29T07:27:24.320Z,54.40
2018-04-29T07:29:52.900Z,54.30
2018-04-29T07:32:21.474Z,54.54
2018-04-29T07:34:50.105Z,54.09
2018-04-29T07:37:18.686Z,54.35
2018-04-29T07:39:47.327Z,54.44
2018-04-29T07:42:15.890Z,54.13
2018-04-29T07:44:44.474Z,53.92
2018-04-29T07:47:13.057Z,52.95
2018-04-29T07:49:41.679Z,53.46
2018-04-29T07:52:10.300Z,53.34
2018-04-29T07:54:38.656Z,53.35
2018-04-29T07:57:07.792Z,53.59
2018-04-29T07:59:36.422Z,53.04
2018-04-29T08:02:05.002Z,53.94
2018-04-29T08:04:33.259Z,53.70
2018-04-29T08:07:01.854Z,53.18
2018-04-29T08:09:30.479Z,53.17
2018-04-29T08:11:59.067Z,53.07
2018-04-29T08:14:27.647Z,53.73
2018-04-29T08:16:56.297Z,53.65
2018-04-29T08:19:24.886Z,52.05
2018-04-29T08:21:53.471Z,51.73
2018-04-29T08:24:22.051Z,52.05
2018-04-29T08:26:50.719Z,51.30
2018-04-29T08:29:19.302Z,51.25
2018-04-29T08:31:47.920Z,52.22
2018-04-29T08:34:16.512Z,50.54
2018-04-29T08:36:45.121Z,50.11
2018-04-29T08:39:13.744Z,50.19
2018-04-29T08:41:41.983Z,50.36
2018-04-29T08:44:10.963Z,50.65
2018-04-29T08:46:39.543Z,51.18
2018-04-29T08:49:08.955Z,49.91
2018-04-29T08:51:37.617Z,49.99
2018-04-29T08:54:06.196Z,49.01
2018-04-29T08:56:34.845Z,48.79
2018-04-29T08:59:03.485Z,48.85
2018-04-29T09:01:32.095Z,48.85
2018-04-29T09:04:00.728Z,48.77
2018-04-29T09:06:29.342Z,47.50
2018-04-29T09:08:57.979Z,47.30
2018-04-29T09:11:26.589Z,47.53
2018-04-29T09:13:55.171Z,46.60
2018-04-29T09:16:23.749Z,44.83
2018-04-29T09:18:57.654Z,45.14
2018-04-29T09:21:26.239Z,44.31
2018-04-29T09:23:54.939Z,44.12
2018-04-29T09:26:23.653Z,43.61
2018-04-29T09:28:52.281Z,42.94
2018-04-29T09:31:20.872Z,43.12
2018-04-29T09:33:50.192Z,43.20
2018-04-29T09:36:18.775Z,43.38
2018-04-29T09:38:47.359Z,43.76
2018-04-29T09:41:15.952Z,43.76
2018-04-29T09:43:44.402Z,43.15
2018-04-29T09:46:13.096Z,42.65
2018-04-29T09:48:41.747Z,41.90
2018-04-29T09:51:10.669Z,41.46
2018-04-29T09:53:39.238Z,41.71
2018-04-29T09:56:07.822Z,41.56
2018-04-29T09:58:36.406Z,42.09
2018-04-29T10:04:04.152Z,42.06
2018-04-29T10:06:32.728Z,42.20
2018-04-29T10:09:01.323Z,42.04
2018-04-29T10:11:29.908Z,41.50
2018-04-29T10:13:58.492Z,39.38
2018-04-29T10:16:27.093Z,40.74
2018-04-29T10:18:55.766Z,40.69
2018-04-29T10:21:24.460Z,40.50
2018-04-29T10:23:53.054Z,40.87
2018-04-29T10:26:21.774Z,40.39
2018-04-29T10:28:50.361Z,40.13
2018-04-29T10:31:18.965Z,40.97
2018-04-29T10:33:47.558Z,40.88
2018-04-29T10:36:16.130Z,39.60
2018-04-29T10:38:44.423Z,39.63
2018-04-29T10:41:13.109Z,40.08
2018-04-29T10:43:43.698Z,39.65
2018-04-29T10:46:12.289Z,40.23
2018-04-29T10:48:40.947Z,41.30
2018-04-29T10:51:09.542Z,41.58
2018-04-29T10:53:38.664Z,41.11
2018-04-29T10:56:07.623Z,41.92
2018-04-29T10:58:37.207Z,41.68
2018-04-29T11:01:05.822Z,41.52
2018-04-29T11:03:34.406Z,41.74
2018-04-29T11:06:03.160Z,41.70
2018-04-29T11:08:31.791Z,41.78
2018-04-29T11:11:00.370Z,41.87
2018-04-29T11:13:28.622Z,41.95
2018-04-29T11:15:57.204Z,42.51
2018-04-29T11:18:25.563Z,42.51
2018-04-29T11:20:54.183Z,42.27
2018-04-29T11:23:22.781Z,42.55
2018-04-29T11:25:51.359Z,42.97
2018-04-29T11:28:19.984Z,42.64
2018-04-29T11:30:48.633Z,42.65
2018-04-29T11:33:17.259Z,41.52
2018-04-29T11:35:45.861Z,41.61
2018-04-29T11:38:14.437Z,42.75
2018-04-29T11:40:46.181Z,41.53
2018-04-29T11:43:14.768Z,42.43
2018-04-29T11:45:43.352Z,42.30
2018-04-29T11:48:11.944Z,42.21
2018-04-29T11:50:40.538Z,41.91
2018-04-29T11:53:09.110Z,42.06
2018-04-29T11:55:37.695Z,42.80
2018-04-29T11:58:06.275Z,42.66
2018-04-29T12:00:34.914Z,42.61
2018-04-29T12:03:03.505Z,42.95
2018-04-29T12:05:32.168Z,42.45
2018-04-29T12:08:00.912Z,43.00
2018-04-29T12:10:29.546Z,43.22
2018-04-29T12:12:58.174Z,42.75
2018-04-29T12:15:26.759Z,43.14
2018-04-29T12:17:55.375Z,43.45
2018-04-29T12:20:23.963Z,43.12
2018-04-29T12:22:52.632Z,42.90
2018-04-29T12:25:21.251Z,43.08
2018-04-29T12:27:49.844Z,42.60
2018-04-29T12:30:18.484Z,42.80
2018-04-29T12:32:47.074Z,42.20
2018-04-29T12:35:15.719Z,42.46
2018-04-29T12:37:44.334Z,42.79
2018-04-29T12:40:13.115Z,43.20
2018-04-29T12:42:41.717Z,42.88
2018-04-29T12:45:10.432Z,42.82
2018-04-29T12:47:39.070Z,42.23
2018-04-29T12:50:07.651Z,42.43
2018-04-29T12:52:36.251Z,42.71
2018-04-29T12:55:04.831Z,42.48
2018-04-29T12:57:33.442Z,42.42
2018-04-29T13:00:02.078Z,42.32
2018-04-29T13:02:30.810Z,42.14
2018-04-29T13:05:00.033Z,41.97
2018-04-29T13:07:28.646Z,42.47
2018-04-29T13:09:57.235Z,42.52
2018-04-29T13:12:25.880Z,43.00
2018-04-29T13:14:54.509Z,43.03
2018-04-29T13:17:23.206Z,43.02
2018-04-29T13:19:52.746Z,42.91
2018-04-29T13:22:21.561Z,42.51
2018-04-29T13:24:50.437Z,42.45
2018-04-29T13:27:19.054Z,41.45
2018-04-29T13:29:47.626Z,41.74
2018-04-29T13:32:16.206Z,41.80
2018-04-29T13:34:44.828Z,41.57
2018-04-29T13:37:13.605Z,41.90
2018-04-29T13:39:42.195Z,41.80
2018-04-29T13:42:10.908Z,42.14
2018-04-29T13:44:39.620Z,42.48
2018-04-29T13:47:08.240Z,42.59
2018-04-29T13:49:36.831Z,43.07
2018-04-29T13:52:04.734Z,42.70
2018-04-29T13:54:33.362Z,42.92
2018-04-29T13:57:01.984Z,43.05
2018-04-29T13:59:30.632Z,42.63
2018-04-29T14:01:59.259Z,42.90
2018-04-29T14:04:27.847Z,42.54
2018-04-29T14:06:56.443Z,41.77
2018-04-29T14:09:25.020Z,41.49
2018-04-29T14:11:53.634Z,41.75
2018-04-29T14:14:22.424Z,41.46
2018-04-29T14:16:51.014Z,41.09
2018-04-29T14:19:19.595Z,40.99
2018-04-29T14:21:48.565Z,40.87
2018-04-29T14:24:18.616Z,40.76
2018-04-29T14:26:46.882Z,40.79
2018-04-29T14:29:15.483Z,40.43
2018-04-29T14:31:44.059Z,41.01
2018-04-29T14:34:14.415Z,41.02
2018-04-29T14:36:43.417Z,40.61
2018-04-29T14:39:12.217Z,41.17
2018-04-29T14:41:40.790Z,41.55
2018-04-29T14:44:09.378Z,41.00
2018-04-29T14:46:37.976Z,41.46
2018-04-29T14:49:06.578Z,41.08
2018-04-29T14:51:35.165Z,41.24
2018-04-29T14:54:03.501Z,41.21
2018-04-29T14:56:32.086Z,41.53
2018-04-29T14:59:00.720Z,41.82
2018-04-29T15:01:29.319Z,42.50
2018-04-29T15:03:57.857Z,42.66
2018-04-29T15:06:26.432Z,42.83
2018-04-29T15:08:55.007Z,42.71
2018-04-29T15:11:23.619Z,42.76
2018-04-29T15:13:52.458Z,42.11
2018-04-29T15:16:21.098Z,42.15
2018-04-29T15:18:58.089Z,42.03
2018-04-29T15:21:26.400Z,42.06
2018-04-29T15:23:55.186Z,42.36
2018-04-29T15:26:23.445Z,42.81
2018-04-29T15:28:52.090Z,42.94
2018-04-29T15:31:20.662Z,43.29
2018-04-29T15:33:49.326Z,43.36
2018-04-29T15:36:17.923Z,43.55
2018-04-29T15:38:46.688Z,43.36
2018-04-29T15:41:15.302Z,43.10
2018-04-29T15:43:43.902Z,42.98
2018-04-29T15:46:12.485Z,42.75
2018-04-29T15:48:41.087Z,42.04
2018-04-29T15:51:09.689Z,42.27
2018-04-29T15:53:38.338Z,41.90
2018-04-29T15:56:07.390Z,42.07
2018-04-29T15:58:35.302Z,41.76
2018-04-29T16:01:03.905Z,41.93
2018-04-29T16:03:33.401Z,42.25
2018-04-29T16:06:02.180Z,42.25
2018-04-29T16:08:30.767Z,42.54
2018-04-29T16:10:59.342Z,42.85
2018-04-29T16:13:27.915Z,42.84
2018-04-29T16:15:56.276Z,42.35
2018-04-29T16:18:24.885Z,42.47
2018-04-29T16:20:53.468Z,42.62
2018-04-29T16:23:22.038Z,42.46
2018-04-29T16:25:50.692Z,42.35
2018-04-29T16:28:19.272Z,41.99
2018-04-29T16:30:47.891Z,42.46
2018-04-29T16:33:16.743Z,42.46
2018-04-29T16:35:45.345Z,42.48
2018-04-29T16:38:13.959Z,42.53
2018-04-29T16:40:42.740Z,42.22
2018-04-29T16:43:11.322Z,42.23
2018-04-29T16:45:39.909Z,42.38
2018-04-29T16:48:08.533Z,42.33
2018-04-29T16:50:37.118Z,42.54
2018-04-29T16:53:05.707Z,42.50
2018-04-29T16:55:34.411Z,42.88
2018-04-29T16:58:03.118Z,42.92
2018-04-29T17:00:31.761Z,43.16
2018-04-29T17:03:00.341Z,43.40
2018-04-29T17:05:28.925Z,43.75
2018-04-29T17:07:57.602Z,43.77
2018-04-29T17:10:26.213Z,43.52
2018-04-29T17:12:54.799Z,43.47
2018-04-29T17:15:25.680Z,43.23
2018-04-29T17:17:54.332Z,42.82
2018-04-29T17:20:23.011Z,42.83
2018-04-29T17:22:51.625Z,42.40
2018-04-29T17:25:20.277Z,42.38
2018-04-29T17:27:48.865Z,41.97
2018-04-29T17:30:17.551Z,41.45
2018-04-29T17:32:46.123Z,41.55
2018-04-29T17:35:14.743Z,40.98
2018-04-29T17:37:43.354Z,40.85
2018-04-29T17:40:12.178Z,40.08
2018-04-29T17:42:40.760Z,39.66
2018-04-29T17:45:09.051Z,39.75
2018-04-29T17:47:37.686Z,39.26
2018-04-29T17:50:06.286Z,39.09
2018-04-29T17:52:34.866Z,38.47
2018-04-29T17:55:03.472Z,38.42
2018-04-29T17:57:32.045Z,38.35
2018-04-29T18:00:00.647Z,38.47
2018-04-29T18:02:29.222Z,38.36
2018-04-29T18:04:57.799Z,38.70
2018-04-29T18:07:26.421Z,39.04
2018-04-29T18:09:54.995Z,39.69
2018-04-29T18:12:23.659Z,39.73
2018-04-29T18:14:52.103Z,39.91
2018-04-29T18:17:20.709Z,40.05
2018-04-29T18:19:49.284Z,40.22
2018-04-29T18:22:17.612Z,40.66
2018-04-29T18:24:46.258Z,40.85
2018-04-29T18:27:14.883Z,41.13
2018-04-29T18:29:43.385Z,41.38
2018-04-29T18:32:12.036Z,41.64
2018-04-29T18:34:40.611Z,41.72
2018-04-29T18:37:09.262Z,41.87
2018-04-29T18:39:37.871Z,42.23
2018-04-29T18:42:07.228Z,42.25
2018-04-29T18:44:35.817Z,42.84
2018-04-29T18:47:04.399Z,43.25
2018-04-29T18:49:34.791Z,43.63
2018-04-29T18:52:03.423Z,43.83
2018-04-29T18:54:32.006Z,43.76
2018-04-29T18:57:00.574Z,43.86
2018-04-29T18:59:29.259Z,43.87
2018-04-29T19:01:57.838Z,43.84
2018-04-29T19:04:26.435Z,44.06
2018-04-29T19:06:55.035Z,44.18
2018-04-29T19:09:23.614Z,44.36
2018-04-29T19:11:52.264Z,44.51
2018-04-29T19:14:20.867Z,44.91
2018-04-29T19:16:49.445Z,45.19
2018-04-29T19:19:18.019Z,45.46
2018-04-29T19:21:46.647Z,45.79
2018-04-29T19:24:15.311Z,45.88
2018-04-29T19:26:45.026Z,46.09
2018-04-29T19:29:13.614Z,46.32
2018-04-29T19:31:42.259Z,46.55
2018-04-29T19:34:18.382Z,46.88
2018-04-29T19:36:47.651Z,47.05
2018-04-29T19:39:16.231Z,47.11
2018-04-29T19:41:46.091Z,47.01
2018-04-29T19:44:14.408Z,47.24
2018-04-29T19:46:44.881Z,47.51
2018-04-29T19:49:13.331Z,47.44
2018-04-29T19:51:41.922Z,47.50
2018-04-29T19:54:16.332Z,47.60
2018-04-29T19:56:45.119Z,47.63
2018-04-29T19:59:13.770Z,47.89
2018-04-29T20:01:42.354Z,47.94
2018-04-29T20:04:10.933Z,48.09
2018-04-29T20:06:39.564Z,48.25
2018-04-29T20:09:08.186Z,48.40
2018-04-29T20:11:36.854Z,48.51
2018-04-29T20:14:05.555Z,48.60
2018-04-29T20:16:34.137Z,48.59
2018-04-29T20:19:02.813Z,48.61
2018-04-29T20:21:31.435Z,48.76
2018-04-29T20:24:00.010Z,48.69
2018-04-29T20:26:28.585Z,48.76
2018-04-29T20:28:57.979Z,48.71
2018-04-29T20:31:26.587Z,48.80
2018-04-29T20:33:55.172Z,48.88
2018-04-29T20:36:23.758Z,48.82
2018-04-29T20:38:52.334Z,48.95
2018-04-29T20:41:20.898Z,49.04
2018-04-29T20:43:49.511Z,49.16
2018-04-29T20:46:18.918Z,49.31
2018-04-29T20:48:47.513Z,49.42
2018-04-29T20:51:16.130Z,49.48
2018-04-29T20:53:44.706Z,49.66
2018-04-29T20:56:13.346Z,50.06
2018-04-29T20:58:41.959Z,50.12
2018-04-29T21:01:10.529Z,50.09
2018-04-29T21:03:39.110Z,50.15
2018-04-29T21:06:07.723Z,50.34
2018-04-29T21:08:36.306Z,50.45
2018-04-29T21:11:04.925Z,50.55
2018-04-29T21:13:33.539Z,50.58
2018-04-29T21:16:02.118Z,50.71
2018-04-29T21:18:30.727Z,50.70
2018-04-29T21:20:59.311Z,50.81
2018-04-29T21:23:27.898Z,50.92
2018-04-29T21:25:56.482Z,50.93
2018-04-29T21:28:25.100Z,51.01
2018-04-29T21:30:53.703Z,51.18
2018-04-29T21:33:22.283Z,51.22
2018-04-29T21:35:50.861Z,51.07
2018-04-29T21:38:19.519Z,51.06
2018-04-29T21:40:48.101Z,51.44
2018-04-29T21:43:16.692Z,51.48
2018-04-29T21:45:45.301Z,51.46
2018-04-29T21:48:13.915Z,51.55
2018-04-29T21:50:42.486Z,51.75
2018-04-29T21:53:11.050Z,51.78
2018-04-29T21:55:41.528Z,51.71
2018-04-29T21:58:10.316Z,51.78
2018-04-29T22:00:38.947Z,51.93
2018-04-29T22:03:07.514Z,51.93
2018-04-29T22:05:36.090Z,52.28
2018-04-29T22:08:04.672Z,52.20
2018-04-29T22:10:33.362Z,52.27
2018-04-29T22:13:04.043Z,52.34
2018-04-29T22:15:32.681Z,52.46
2018-04-29T22:18:01.295Z,52.75
2018-04-29T22:20:29.942Z,52.70
2018-04-29T22:22:58.560Z,52.74
2018-04-29T22:25:27.130Z,52.86
2018-04-29T22:27:55.806Z,52.97
2018-04-29T22:30:24.430Z,53.19
2018-04-29T22:32:53.011Z,53.04
2018-04-29T22:35:21.591Z,53.16
2018-04-29T22:37:50.174Z,53.25
2018-04-29T22:40:18.812Z,53.23
2018-04-29T22:42:47.379Z,53.43
2018-04-29T22:45:15.989Z,53.39
2018-04-29T22:47:44.574Z,53.48
2018-04-29T22:50:13.209Z,53.41
2018-04-29T22:52:41.785Z,53.54
2018-04-29T22:55:10.407Z,53.54
2018-04-29T22:57:38.976Z,53.60
2018-04-29T23:00:06.923Z,53.49
2018-04-29T23:02:35.503Z,53.67
2018-04-29T23:05:04.739Z,53.63
2018-04-29T23:07:33.359Z,53.66
2018-04-29T23:10:01.964Z,53.67
2018-04-29T23:12:30.530Z,53.77
2018-04-29T23:14:59.121Z,53.59
2018-04-29T23:17:27.734Z,53.76
2018-04-29T23:19:56.673Z,53.91
2018-04-29T23:22:25.244Z,53.92
2018-04-29T23:24:53.851Z,53.92
2018-04-29T23:27:22.543Z,54.01
2018-04-29T23:29:51.127Z,54.06
2018-04-29T23:32:19.712Z,53.78
2018-04-29T23:34:48.340Z,53.57
2018-04-29T23:37:16.926Z,53.30
2018-04-29T23:39:45.512Z,53.11
2018-04-29T23:42:14.139Z,53.14
2018-04-29T23:44:42.775Z,53.08
2018-04-29T23:47:11.347Z,53.00
2018-04-29T23:49:39.933Z,53.17
2018-04-29T23:52:08.560Z,53.09
2018-04-29T23:54:37.202Z,52.94
2018-04-29T23:57:05.828Z,52.66
2018-04-29T23:59:35.231Z,52.78
